Latest Weather Observations for Laverton

IDV60901

Issued at 4:41 pm EST Tuesday 3 May 2016 (issued every 10 minutes, with the page automatically refreshed every 10 minutes)

About weather observations | Map of Melbourne area stations | Latest observations for Melbourne area | Other Formats
Station Details ID: 087031 Name: LAVERTON RAAF Lat: -37.86 Lon: 144.76 Height: 20.1 m
Data from the previous 72 hours. | See also: Recent months at Laverton
Date/Time
EST
Tmp

°C
App
Tmp
°C
Dew
Point
°C
Rel
Hum
%
Delta-T

°C
Wind Press
QNH
hPa
Press
MSL
hPa
Rain
since
9 am
mm
Dir
 
Spd
km/h
Gust
km/h
Spd
kts
Gust
kts
03/04:34pm 13.7 8.5 10.3 80 1.8 WNW 28 39 15 21 1002.1 1002.1 2.2
03/04:30pm 13.4 7.9 10.6 83 1.5 WNW 30 43 16 23 1002.0 1002.0 2.2
03/04:13pm 13.1 6.0 10.8 86 1.2 W 39 57 21 31 1001.9 1001.9 1.8
03/04:10pm 13.2 5.3 10.7 85 1.3 W 43 57 23 31 1001.8 1001.8 1.6
03/04:00pm 14.9 7.0 9.5 70 2.8 W 41 61 22 33 1001.5 1001.5 1.2
03/03:48pm 16.0 9.7 11.2 73 2.6 W 35 57 19 31 1001.0 1001.0 1.2
03/03:44pm 17.9 11.1 12.1 69 3.2 WNW 39 57 21 31 1001.0 1001.0 1.2
03/03:30pm 17.6 9.2 12.3 71 2.9 NW 48 67 26 36 999.9 999.9 1.2
03/03:29pm 17.5 9.1 12.4 72 2.8 NW 48 67 26 36 999.9 999.9 1.2
03/03:26pm 17.5 9.1 12.2 71 2.9 NW 48 65 26 35 999.7 999.7 1.2
03/03:24pm 17.3 9.2 12.2 72 2.8 NW 46 65 25 35 999.8 999.8 1.2
03/03:01pm 17.2 10.6 12.5 74 2.6 NW 39 61 21 33 999.5 999.5 0.4
03/03:00pm 17.7 11.0 12.2 70 3.1 NW 39 61 21 33 999.6 999.6 0.0
03/02:53pm 18.7 12.0 11.0 61 4.2 NW 37 61 20 33 999.5 999.5 0.0
03/02:52pm 18.8 12.1 10.9 60 4.3 NNW 37 61 20 33 999.3 999.3 0.0
03/02:31pm 18.8 12.8 10.9 60 4.3 NNW 33 52 18 28 999.0 999.0 0.0
03/02:30pm 18.8 12.5 10.9 60 4.3 NNW 35 52 19 28 998.9 998.9 0.0
03/02:05pm 18.6 11.7 10.2 58 4.5 NNW 37 56 20 30 998.9 998.9 0.0
03/02:00pm 18.9 12.1 10.5 58 4.6 NNW 37 54 20 29 998.9 998.9 0.0
03/01:37pm 18.8 11.4 9.8 56 4.8 NNW 39 57 21 31 999.0 999.0 0.0
03/01:30pm 18.8 11.0 9.8 56 4.8 NNW 41 56 22 30 999.2 999.2 0.0
03/01:00pm 19.2 11.0 9.7 54 5.1 NNW 43 65 23 35 999.1 999.1 0.0
03/12:30pm 19.1 11.1 9.0 52 5.3 NNW 41 59 22 32 999.1 999.1 0.0
03/12:00pm 19.1 9.7 8.7 51 5.5 NNW 48 67 26 36 999.5 999.5 0.0
03/11:30am 19.0 10.3 8.6 51 5.4 NNW 44 65 24 35 999.9 999.9 0.0
03/11:00am 19.1 10.6 8.4 50 5.6 NNW 43 69 23 37 1000.3 1000.3 0.0
03/10:30am 18.9 11.6 8.6 51 5.3 N 37 59 20 32 1000.6 1000.6 0.0
03/10:02am 17.7 10.9 7.7 52 5.1 N 33 52 18 28 1001.1 1001.1 0.0
03/10:00am 17.8 10.6 7.5 51 5.2 N 35 52 19 28 1001.1 1001.1 0.0
03/09:30am 17.6 9.3 7.9 53 4.9 N 41 59 22 32 1001.5 1001.5 0.0
03/09:03am 17.1 10.6 8.0 55 4.6 N 32 54 17 29 1001.4 1001.4 0.0
03/09:00am 16.9 10.3 7.8 55 4.6 N 32 46 17 25 1001.4 1001.4 0.0
03/08:37am 16.1 10.2 7.6 57 4.3 N 28 46 15 25 1001.8 1001.8 0.0
03/08:30am 15.9 10.4 7.7 58 4.1 N 26 41 14 22 1001.8 1001.8 0.0
03/08:20am 15.7 9.5 7.7 59 4.0 N 30 48 16 26 1001.8 1001.8 0.0
03/08:00am 15.3 9.9 7.8 61 3.8 N 26 41 14 22 1001.9 1001.9 0.0
03/07:30am 14.7 9.5 7.3 61 3.6 N 24 33 13 18 1002.9 1002.9 0.0
03/07:00am 14.5 8.9 7.1 61 3.6 N 26 44 14 24 1002.2 1002.2 0.0
03/06:30am 15.3 9.4 7.3 59 4.0 N 28 41 15 22 1002.4 1002.4 0.0
03/06:14am 15.4 9.1 7.4 59 4.0 N 30 50 16 27 1002.4 1002.4 0.0
03/06:00am 15.4 9.1 7.2 58 4.1 N 30 43 16 23 1002.6 1002.6 0.0
03/05:30am 15.4 9.5 7.4 59 4.0 NNW 28 43 15 23 1002.9 1002.9 0.0
03/05:03am 15.6 9.3 7.4 58 4.1 N 30 48 16 26 1002.5 1002.5 0.0
03/05:00am 15.8 9.1 7.3 57 4.2 N 32 48 17 26 1002.5 1002.5 0.0
03/04:30am 16.0 9.3 7.5 57 4.2 N 32 50 17 27 1002.5 1002.5 0.0
03/04:06am 15.6 9.0 7.6 59 4.0 N 32 52 17 28 1002.9 1002.9 0.0
03/04:00am 15.5 9.2 7.5 59 4.0 N 30 39 16 21 1003.2 1003.2 0.0
03/03:30am 15.1 9.2 7.4 60 3.8 N 28 39 15 21 1003.9 1003.9 0.0
03/03:02am 15.3 9.5 7.8 61 3.7 N 28 46 15 25 1004.6 1004.6 0.0
03/03:00am 15.3 9.9 7.8 61 3.8 N 26 46 14 25 1004.7 1004.7 0.0
03/02:30am 15.3 9.4 7.3 59 4.0 N 28 43 15 23 1004.7 1004.7 0.0
03/02:00am 15.5 9.6 6.0 53 4.6 N 26 44 14 24 1005.0 1005.0 0.0
03/01:44am 15.9 9.6 5.8 51 4.9 N 28 46 15 25 1005.1 1005.1 0.0
03/01:30am 16.4 9.2 5.7 49 5.2 N 33 48 18 26 1005.0 1005.0 0.0
03/01:05am 16.2 8.9 5.5 49 5.1 N 33 57 18 31 1005.3 1005.3 0.0
03/01:00am 16.0 8.9 5.3 49 5.1 N 32 46 17 25 1005.4 1005.4 0.0
03/12:49am 16.1 8.8 5.4 49 5.1 N 33 54 18 29 1005.7 1005.7 0.0
03/12:30am 15.5 9.1 5.4 51 4.8 N 28 43 15 23 1006.2 1006.2 0.0
03/12:10am 15.5 9.1 5.4 51 4.8 N 28 56 15 30 1006.3 1006.3 0.0
03/12:00am 14.8 9.6 5.6 54 4.4 N 22 35 12 19 1006.5 1006.5 0.0
 
Date/Time
EST
Tmp

°C
App
Tmp
°C
Dew
Point
°C
Rel
Hum
%
Delta-T

°C
Wind Press
QNH
hPa
Press
MSL
hPa
Rain
since
9 am
mm
Dir
 
Spd
km/h
Gust
km/h
Spd
kts
Gust
kts
02/11:30pm 14.1 9.9 5.5 56 4.1 N 17 26 9 14 1006.9 1006.9 0.0
02/11:00pm 14.1 9.9 5.5 56 4.1 N 17 26 9 14 1007.1 1007.1 0.0
02/10:30pm 14.3 9.5 5.7 56 4.1 N 20 30 11 16 1007.3 1007.3 0.0
02/10:00pm 14.4 9.2 5.7 56 4.1 N 22 32 12 17 1007.4 1007.4 0.0
02/09:30pm 13.9 9.2 6.0 59 3.8 N 20 33 11 18 1007.7 1007.7 0.0
02/09:00pm 14.3 8.4 5.9 57 4.0 N 26 43 14 23 1007.6 1007.6 0.0
02/08:30pm 14.5 9.0 5.8 56 4.1 N 24 37 13 20 1008.0 1008.0 0.0
02/08:00pm 14.5 9.6 5.3 54 4.3 N 20 35 11 19 1008.1 1008.1 0.0
02/07:30pm 14.8 9.9 5.3 53 4.5 N 20 28 11 15 1008.4 1008.4 0.0
02/07:00pm 15.0 9.7 5.2 52 4.6 N 22 32 12 17 1008.3 1008.3 0.0
02/06:30pm 15.2 10.4 5.4 52 4.7 N 20 32 11 17 1008.1 1008.1 0.0
02/06:00pm 15.7 10.0 5.0 49 5.1 N 24 33 13 18 1007.9 1007.9 0.0
02/05:30pm 16.0 10.3 5.0 48 5.2 N 24 37 13 20 1008.4 1008.4 0.0
02/05:00pm 16.4 9.5 4.8 46 5.5 N 30 44 16 24 1008.6 1008.6 0.0
02/04:30pm 16.9 10.1 5.2 46 5.6 NNW 30 46 16 25 1008.7 1008.7 0.0
02/04:15pm 17.2 10.0 4.9 44 5.9 NNW 32 52 17 28 1008.8 1008.8 0.0
02/04:00pm 17.1 9.9 5.1 45 5.8 NNW 32 46 17 25 1008.8 1008.8 0.0
02/03:30pm 17.3 9.7 5.6 46 5.7 NNW 35 52 19 28 1009.0 1009.0 0.0
02/03:02pm 17.3 9.6 5.3 45 5.8 NNW 35 57 19 31 1009.2 1009.2 0.0
02/03:00pm 17.2 10.0 5.8 47 5.5 NW 33 46 18 25 1009.3 1009.3 0.0
02/02:37pm 17.3 11.0 5.6 46 5.7 NNW 28 46 15 25 1009.2 1009.2 0.0
02/02:30pm 17.2 10.9 5.5 46 5.7 NNW 28 44 15 24 1009.1 1009.1 0.0
02/02:00pm 18.2 11.2 5.8 44 6.1 NNW 32 56 17 30 1009.3 1009.3 0.0
02/01:41pm 18.2 11.0 5.8 44 6.1 NW 33 52 18 28 1009.4 1009.4 0.0
02/01:30pm 18.3 11.3 6.2 45 6.0 NW 32 44 17 24 1009.5 1009.5 0.0
02/01:00pm 17.9 10.9 6.1 46 5.8 NNW 32 44 17 24 1009.8 1009.8 0.0
02/12:30pm 17.4 10.0 5.0 44 5.9 NNW 33 50 18 27 1010.3 1010.4 0.0
02/12:00pm 16.7 9.3 5.0 46 5.6 NNW 33 44 18 24 1011.0 1011.1 0.0
02/11:30am 16.0 9.3 5.6 50 5.0 NNW 30 41 16 22 1011.5 1011.6 0.0
02/11:00am 15.2 9.0 6.0 54 4.4 N 28 37 15 20 1012.2 1012.2 0.0
02/10:30am 13.6 7.6 5.3 57 3.9 N 26 39 14 21 1012.7 1012.7 0.0
02/10:00am 13.6 9.1 6.2 61 3.5 N 19 26 10 14 1013.0 1013.0 0.0
02/09:30am 12.7 8.5 5.6 62 3.3 N 17 24 9 13 1013.3 1013.3 0.0
02/09:00am 11.7 7.0 5.3 65 2.9 N 19 30 10 16 1013.4 1013.4 0.0
02/08:30am 11.3 6.6 5.2 66 2.8 N 19 30 10 16 1013.4 1013.4 0.0
02/08:00am 10.2 6.3 5.2 71 2.3 N 15 19 8 10 1013.5 1013.5 0.0
02/07:30am 9.3 5.7 4.9 74 2.0 NNW 13 17 7 9 1013.3 1013.3 0.0
02/07:00am 9.1 5.0 4.5 73 2.0 NNW 15 20 8 11 1013.3 1013.3 0.0
02/06:30am 9.2 5.1 4.4 72 2.1 NNW 15 19 8 10 1013.1 1013.1 0.0
02/06:00am 9.1 4.6 4.3 72 2.1 NNW 17 24 9 13 1013.4 1013.4 0.0
02/05:30am 9.0 4.2 4.4 73 2.0 NNW 19 24 10 13 1013.5 1013.5 0.0
02/05:00am 9.0 4.2 4.4 73 2.0 NNW 19 24 10 13 1013.3 1013.3 0.0
02/04:30am 8.8 4.4 4.6 75 1.9 NNW 17 24 9 13 1013.3 1013.3 0.0
02/04:00am 8.8 5.1 4.6 75 1.9 NNW 13 19 7 10 1013.2 1013.2 0.0
02/03:30am 8.6 5.7 4.6 76 1.8 N 9 11 5 6 1013.7 1013.7 0.0
02/03:00am 8.9 4.9 4.7 75 1.9 NNW 15 20 8 11 1013.9 1013.9 0.0
02/02:30am 8.9 4.5 4.7 75 1.9 NNW 17 22 9 12 1014.2 1014.2 0.0
02/02:00am 8.7 4.3 4.7 76 1.8 NNW 17 24 9 13 1014.4 1014.4 0.0
02/01:30am 8.7 4.3 4.7 76 1.8 NNW 17 20 9 11 1014.7 1014.7 0.0
02/01:00am 8.7 5.8 4.7 76 1.8 N 9 13 5 7 1015.1 1015.1 0.0
02/12:30am 8.4 5.5 4.8 78 1.6 NNW 9 13 5 7 1015.4 1015.4 0.0
02/12:00am 8.7 5.5 4.9 77 1.7 NNW 11 15 6 8 1015.6 1015.6 0.0
 
Date/Time
EST
Tmp

°C
App
Tmp
°C
Dew
Point
°C
Rel
Hum
%
Delta-T

°C
Wind Press
QNH
hPa
Press
MSL
hPa
Rain
since
9 am
mm
Dir
 
Spd
km/h
Gust
km/h
Spd
kts
Gust
kts
01/11:30pm 8.6 5.4 5.0 78 1.6 NNW 11 15 6 8 1015.7 1015.7 0.0
01/11:00pm 9.2 5.6 5.2 76 1.8 NNW 13 17 7 9 1015.9 1015.9 0.0
01/10:30pm 9.5 6.0 5.3 75 1.9 NNW 13 17 7 9 1016.1 1016.1 0.0
01/10:00pm 9.5 5.6 5.5 76 1.8 NNW 15 20 8 11 1016.1 1016.1 0.0
01/09:30pm 9.7 7.0 5.5 75 1.9 N 9 11 5 6 1015.7 1015.7 0.0
01/09:00pm 9.8 6.0 5.6 75 1.9 NW 15 20 8 11 1015.6 1015.6 0.0
01/08:30pm 10.4 6.6 5.8 73 2.1 NNW 15 19 8 10 1015.6 1015.6 0.0
01/08:00pm 10.2 7.2 6.2 76 1.9 NNW 11 15 6 8 1015.3 1015.3 0.0
01/07:30pm 10.5 6.7 5.9 73 2.1 NW 15 19 8 10 1015.0 1015.0 0.0
01/07:00pm 11.0 7.6 6.0 71 2.3 NW 13 15 7 8 1014.7 1014.7 0.0
01/06:30pm 12.2 8.7 5.6 64 3.1 WNW 13 20 7 11 1014.5 1014.5 0.0
01/06:00pm 13.1 8.8 5.3 59 3.6 W 17 28 9 15 1013.8 1013.8 0.0
01/05:30pm 13.3 8.5 5.7 60 3.6 WNW 20 32 11 17 1013.2 1013.2 0.0
01/05:00pm 13.4 7.6 6.3 62 3.4 W 26 35 14 19 1012.7 1012.7 0.0
01/04:30pm 13.9 7.7 6.3 60 3.6 W 28 39 15 21 1012.6 1012.6 0.0
01/04:00pm 13.3 7.4 5.9 61 3.5 WSW 26 37 14 20 1012.1 1012.1 0.0
01/03:30pm 12.6 3.0 6.4 66 2.9 WSW 46 69 25 37 1012.0 1012.0 0.0
01/03:00pm 13.9 4.4 4.8 54 4.2 WSW 44 70 24 38 1011.2 1011.3 0.0
01/02:58pm 14.2 5.0 5.6 56 4.1 W 43 70 23 38 1011.1 1011.2 0.0
01/02:35pm 15.4 7.9 6.4 55 4.4 WNW 35 54 19 29 1010.5 1010.6 0.0
01/02:30pm 15.6 7.0 6.6 55 4.4 WNW 41 56 22 30 1010.4 1010.5 0.0
01/02:07pm 15.2 8.1 6.5 56 4.2 W 33 52 18 28 1010.2 1010.3 0.0
01/02:00pm 15.1 7.6 6.1 55 4.3 W 35 50 19 27 1010.0 1010.1 0.0
01/01:30pm 15.9 8.5 6.6 54 4.6 W 35 59 19 32 1009.6 1009.6 0.0
01/01:08pm 15.5 6.8 6.2 54 4.5 W 41 59 22 32 1009.5 1009.5 0.0
01/01:00pm 15.6 7.4 6.6 55 4.4 W 39 56 21 30 1009.3 1009.3 0.0
01/12:57pm 15.7 8.3 6.7 55 4.4 W 35 54 19 29 1009.3 1009.3 0.0
01/12:30pm 14.8 6.6 6.6 58 4.0 W 39 54 21 29 1009.3 1009.3 0.0
01/12:18pm 14.5 7.0 6.3 58 3.9 W 35 54 19 29 1009.3 1009.3 0.0
01/12:00pm 14.1 5.9 6.5 60 3.7 W 39 52 21 28 1009.1 1009.1 0.0
01/11:30am 13.6 6.0 9.1 74 2.3 W 39 59 21 32 1008.9 1008.9 0.0
01/11:11am 14.9 7.2 7.2 60 3.8 W 37 56 20 30 1008.4 1008.4 0.0
01/11:00am 15.0 6.9 7.1 59 3.9 WNW 39 54 21 29 1008.3 1008.3 0.0
01/10:30am 15.9 8.6 7.1 56 4.4 WNW 35 54 19 29 1007.9 1007.9 0.0
01/10:19am 15.7 8.5 7.7 59 4.0 WNW 35 54 19 29 1007.6 1007.6 0.0
01/10:00am 15.3 6.5 7.3 59 4.0 WNW 43 56 23 30 1007.2 1007.2 0.0
01/09:39am 15.1 6.4 7.6 61 3.7 WNW 43 63 23 34 1006.7 1006.7 0.0
01/09:30am 15.0 6.3 7.5 61 3.7 WNW 43 54 23 29 1006.6 1006.6 0.0
01/09:02am 14.6 7.5 8.1 65 3.3 WNW 35 54 19 29 1006.5 1006.5 0.0
01/09:00am 14.6 7.1 8.1 65 3.3 WNW 37 54 20 29 1006.4 1006.4 14.8
01/08:48am 14.3 6.8 8.0 66 3.1 WNW 37 61 20 33 1006.0 1006.0 14.8
01/08:30am 14.1 7.8 8.9 71 2.6 WNW 32 48 17 26 1006.0 1006.0 14.8
01/08:00am 14.9 8.0 8.8 67 3.1 NW 35 59 19 32 1005.5 1005.5 14.6
01/07:56am 15.1 9.1 8.8 66 3.2 NW 30 54 16 29 1005.4 1005.4 14.6
01/07:30am 14.7 9.1 8.9 68 3.0 NW 28 43 15 23 1004.5 1004.5 14.6
01/07:00am 14.5 10.1 9.1 70 2.8 NNW 22 32 12 17 1004.1 1004.1 14.6
01/06:30am 14.7 11.7 10.5 76 2.2 N 17 26 9 14 1003.6 1003.6 14.6
01/06:00am 14.9 12.0 10.9 77 2.1 N 17 28 9 15 1003.3 1003.3 14.6
01/05:30am 15.1 12.2 11.1 77 2.1 N 17 26 9 14 1003.1 1003.1 14.6
01/05:00am 14.7 13.5 12.7 88 1.1 N 11 17 6 9 1003.3 1003.3 14.6
01/04:30am 15.3 13.5 13.2 87 1.2 N 15 20 8 11 1002.2 1002.2 14.6
01/04:00am 15.6 11.6 13.1 85 1.4 NW 26 39 14 21 1002.5 1002.5 14.6
01/03:32am 15.6 12.4 14.3 92 0.7 NW 24 32 13 17 1003.5 1003.5 13.6
01/03:30am 15.5 12.3 14.2 92 0.7 NW 24 32 13 17 1003.4 1003.4 13.4
01/03:00am 16.7 14.4 15.6 93 0.6 NW 22 33 12 18 1003.9 1003.9 6.8
01/02:54am 18.1 16.5 16.4 90 1.0 N 20 35 11 19 1002.8 1002.8 1.4
01/02:30am 18.8 15.8 15.9 83 1.7 N 26 41 14 22 1002.1 1002.1 0.2
01/02:11am 19.7 16.2 15.4 76 2.5 N 28 46 15 25 1002.8 1002.8 0.0
01/02:00am 20.0 15.6 15.2 74 2.8 N 32 46 17 25 1002.9 1002.9 0.0
01/01:30am 19.8 15.2 15.2 75 2.7 N 33 54 18 29 1003.5 1003.5 0.0
01/01:05am 19.6 15.3 15.5 77 2.4 N 32 50 17 27 1004.4 1004.4 0.0
01/01:00am 19.6 15.1 15.5 77 2.4 N 33 48 18 26 1004.3 1004.3 0.0
01/12:30am 19.4 15.1 15.3 77 2.4 N 32 56 17 30 1004.9 1004.9 0.0
01/12:16am 19.5 16.0 15.4 77 2.4 N 28 46 15 25 1005.0 1005.0 0.0
01/12:00am 19.4 15.5 15.5 78 2.3 N 30 44 16 24 1005.4 1005.4 0.0
 
Date/Time
EST
Tmp

°C
App
Tmp
°C
Dew
Point
°C
Rel
Hum
%
Delta-T

°C
Wind Press
QNH
hPa
Press
MSL
hPa
Rain
since
9 am
mm
Dir
 
Spd
km/h
Gust
km/h
Spd
kts
Gust
kts
30/11:30pm 19.4 16.3 15.5 78 2.3 NNE 26 37 14 20 1006.5 1006.5 0.0
30/11:00pm 19.7 16.2 15.6 77 2.4 N 28 41 15 22 1007.2 1007.2 0.0
30/10:30pm 20.0 15.5 15.4 75 2.7 N 33 48 18 26 1007.7 1007.7 0.0
30/10:20pm 20.2 15.7 15.4 74 2.8 N 33 54 18 29 1007.7 1007.7 0.0
30/10:00pm 20.0 16.5 15.4 75 2.7 N 28 43 15 23 1008.2 1008.2 0.0
30/09:30pm 19.7 17.2 15.1 75 2.7 NNE 22 33 12 18 1008.6 1008.6 0.0
30/09:00pm 19.4 17.3 15.1 76 2.5 NNE 20 28 11 15 1009.2 1009.2 0.0
30/08:30pm 19.6 17.6 15.0 75 2.7 N 19 30 10 16 1009.4 1009.4 0.0
30/08:00pm 19.2 17.7 15.3 78 2.3 NNE 17 22 9 12 1009.5 1009.5 0.0
30/07:30pm 18.9 18.4 15.0 78 2.3 NNE 11 15 6 8 1009.7 1009.7 0.0
30/07:00pm 19.4 18.5 14.9 75 2.6 NNE 13 22 7 12 1009.7 1009.7 0.0
30/06:30pm 20.1 18.0 14.7 71 3.2 N 19 30 10 16 1009.8 1009.8 0.0
30/06:00pm 20.7 18.4 14.6 68 3.6 N 20 32 11 17 1009.9 1009.9 0.0
30/05:30pm 21.2 18.8 14.4 65 4.0 N 20 35 11 19 1010.1 1010.1 0.0
30/05:00pm 21.9 19.5 14.5 63 4.4 N 20 28 11 15 1010.0 1010.0 0.0

Latest Capital City Observations: Canberra | Sydney | Melbourne | Brisbane | Adelaide | Perth | Hobart | Darwin

Other Formats:

Comma delimited format used in spreadsheet applications
http://www.bom.gov.au/fwo/IDV60901/IDV60901.94865.axf

JavaScript Object Notation format (JSON) in row-major order
http://www.bom.gov.au/fwo/IDV60901/IDV60901.94865.json